KWRL/WRL METAR and TAF weather

Enter ICAO airport designator
Station Type Date Time Source
KWRL METAR 2021/09/28 04:53 UTC NOAA

KWRL 280453Z AUTO 16005KT 10SM CLR 16/M08 A2979 RMK AO2 SLP054 T01611083


Station Type Date Time Source
KWRL Decoded METAR 2021/09/28 04:53 UTC NOAA

WORLAND MUNICIPAL AIRPORT, WY, United States (KWRL) 43-58N 107-57W 1271M
Sep 28, 2021 - 12:53 AM EDT / 2021.09.28 0453 UTC
Wind: from the SSE (160 degrees) at 6 MPH (5 KT):0
Visibility: 10 mile(s):0
Sky conditions: clear
Temperature: 61.0 F (16.1 C)
Dew Point: 17.1 F (-8.3 C)
Relative Humidity: 17%
Pressure (altimeter): 29.79 in. Hg (1008 hPa)
ob: KWRL 280453Z AUTO 16005KT 10SM CLR 16/M08 A2979 RMK AO2 SLP054 T01611083
cycle: 5

Station Type Date Time Source
KWRL TAF 2021/09/28 06:24 UTC NOAA

TAF KWRL 280523Z 2806/2906 VRB06KT P6SM SKC
FM282100 23009KT P6SM OVC120
FM290000 35012G25KT P6SM OVC120
FM290400 35020G38KT P6SM VCSH OVC070

Example: see airport list